createdAt,value
2023-04-30T00:01:09.207Z,6.55
2023-04-30T00:03:37.401Z,6.28
2023-04-30T00:06:07.123Z,6.38
2023-04-30T00:08:35.486Z,5.90
2023-04-30T00:11:03.581Z,5.22
2023-04-30T00:13:31.664Z,5.65
2023-04-30T00:15:59.718Z,5.78
2023-04-30T00:18:27.775Z,6.57
2023-04-30T00:20:55.949Z,6.25
2023-04-30T00:23:25.459Z,5.47
2023-04-30T00:25:53.488Z,5.78
2023-04-30T00:28:21.473Z,5.10
2023-04-30T00:30:49.538Z,4.53
2023-04-30T00:33:17.650Z,4.85
2023-04-30T00:35:45.807Z,4.95
2023-04-30T00:38:13.919Z,4.20
2023-04-30T00:40:43.777Z,4.90
2023-04-30T00:43:11.880Z,5.13
2023-04-30T00:45:40.010Z,5.10
2023-04-30T00:48:08.645Z,4.93
2023-04-30T00:50:37.744Z,4.68
2023-04-30T00:53:06.285Z,4.18
2023-04-30T00:55:34.396Z,3.67
2023-04-30T00:58:03.845Z,3.40
2023-04-30T01:00:32.264Z,3.08
2023-04-30T01:03:00.387Z,3.13
2023-04-30T01:05:28.893Z,3.20
2023-04-30T01:07:57.616Z,3.85
2023-04-30T01:10:33.740Z,3.75
2023-04-30T01:13:10.682Z,4.38
2023-04-30T01:15:44.308Z,4.63
2023-04-30T01:18:18.501Z,4.80
2023-04-30T01:20:51.706Z,4.47
2023-04-30T01:23:29.550Z,4.00
2023-04-30T01:26:12.866Z,4.45
2023-04-30T01:28:45.800Z,4.10
2023-04-30T01:31:15.514Z,4.28
2023-04-30T01:33:43.938Z,4.47
2023-04-30T01:36:37.486Z,4.22
2023-04-30T01:39:16.936Z,3.78
2023-04-30T01:41:56.154Z,3.90
2023-04-30T01:44:55.344Z,3.40
2023-04-30T01:47:32.617Z,2.97
2023-04-30T01:50:11.329Z,3.35
2023-04-30T01:52:42.684Z,3.33
2023-04-30T01:55:16.187Z,3.50
2023-04-30T01:57:54.816Z,3.50
2023-04-30T02:00:24.734Z,3.20
2023-04-30T02:02:52.870Z,3.28
2023-04-30T02:05:21.749Z,3.10
2023-04-30T02:07:51.709Z,3.20
2023-04-30T02:10:23.944Z,3.63
2023-04-30T02:12:52.178Z,3.33
2023-04-30T02:15:20.460Z,3.75
2023-04-30T02:17:49.966Z,4.05
2023-04-30T02:20:18.655Z,4.38
2023-04-30T02:22:46.857Z,3.90
2023-04-30T02:25:14.976Z,4.38
2023-04-30T02:27:43.108Z,4.63
2023-04-30T02:30:11.290Z,4.63
2023-04-30T02:32:39.406Z,4.57
2023-04-30T02:35:09.777Z,4.80
2023-04-30T02:37:37.882Z,4.43
2023-04-30T02:40:07.185Z,4.60
2023-04-30T02:42:35.253Z,4.38
2023-04-30T02:45:03.338Z,4.72
2023-04-30T02:47:31.398Z,4.53
2023-04-30T02:49:59.524Z,4.68
2023-04-30T02:52:28.984Z,4.30
2023-04-30T02:54:57.015Z,4.10
2023-04-30T02:57:25.110Z,4.10
2023-04-30T02:59:53.334Z,4.50
2023-04-30T03:02:23.746Z,5.25
2023-04-30T03:04:52.073Z,4.60
2023-04-30T03:07:20.162Z,4.63
2023-04-30T03:09:49.616Z,4.70
2023-04-30T03:12:17.753Z,5.05
2023-04-30T03:14:45.870Z,4.75
2023-04-30T03:17:13.864Z,5.18
2023-04-30T03:19:41.885Z,5.63
2023-04-30T03:22:09.979Z,5.65
2023-04-30T03:24:38.119Z,5.28
2023-04-30T03:27:07.565Z,5.75
2023-04-30T03:29:35.684Z,5.82
2023-04-30T03:32:03.782Z,5.72
2023-04-30T03:34:32.641Z,5.75
2023-04-30T03:37:01.901Z,6.03
2023-04-30T03:39:30.033Z,6.22
2023-04-30T03:41:58.090Z,5.40
2023-04-30T03:44:30.151Z,5.95
2023-04-30T03:46:58.171Z,5.68
2023-04-30T03:49:26.244Z,5.13
2023-04-30T03:51:54.334Z,5.63
2023-04-30T03:54:22.437Z,5.65
2023-04-30T03:56:50.539Z,5.75
2023-04-30T03:59:19.136Z,5.93
2023-04-30T04:01:48.674Z,6.72
2023-04-30T04:04:16.887Z,7.18
2023-04-30T04:06:44.964Z,6.93
2023-04-30T04:09:13.479Z,7.35
2023-04-30T04:11:41.536Z,7.47
2023-04-30T04:14:09.723Z,7.70
2023-04-30T04:16:38.429Z,8.18
2023-04-30T04:19:07.992Z,8.68
2023-04-30T04:21:36.083Z,9.35
2023-04-30T04:24:08.472Z,9.10
2023-04-30T04:26:36.755Z,9.45
2023-04-30T04:29:05.082Z,9.38
2023-04-30T04:31:33.304Z,9.52
2023-04-30T04:34:02.501Z,9.80
2023-04-30T04:36:34.247Z,9.45
2023-04-30T04:39:03.100Z,9.80
2023-04-30T04:41:32.749Z,9.93
2023-04-30T04:44:01.956Z,9.00
2023-04-30T04:46:31.762Z,9.70
2023-04-30T04:49:00.256Z,9.75
2023-04-30T04:51:28.704Z,9.95
2023-04-30T04:53:58.187Z,10.20
2023-04-30T04:56:26.158Z,10.18
2023-04-30T04:58:54.336Z,9.55
2023-04-30T05:01:22.477Z,8.50
2023-04-30T05:03:51.242Z,9.05
2023-04-30T05:06:19.469Z,7.95
2023-04-30T05:08:47.555Z,8.88
2023-04-30T05:11:17.026Z,7.97
2023-04-30T05:13:45.124Z,7.32
2023-04-30T05:16:13.153Z,7.28
2023-04-30T05:18:41.298Z,6.35
2023-04-30T05:21:09.306Z,6.63
2023-04-30T05:23:37.329Z,5.25
2023-04-30T05:26:06.076Z,5.78
2023-04-30T05:28:35.702Z,6.43
2023-04-30T05:31:03.746Z,5.72
2023-04-30T05:33:31.834Z,5.38
2023-04-30T05:35:59.900Z,5.82
2023-04-30T05:38:28.199Z,6.55
2023-04-30T05:40:56.220Z,5.40
2023-04-30T05:43:24.334Z,5.43
2023-04-30T05:45:53.953Z,5.20
2023-04-30T05:48:22.089Z,5.03
2023-04-30T05:50:51.420Z,5.65
2023-04-30T05:53:19.529Z,5.05
2023-04-30T05:55:47.581Z,4.18
2023-04-30T05:58:15.690Z,4.78
2023-04-30T06:00:43.770Z,4.90
2023-04-30T06:03:13.346Z,4.80
2023-04-30T06:05:41.852Z,5.07
2023-04-30T06:08:10.107Z,5.22
2023-04-30T06:10:39.309Z,4.70
2023-04-30T06:13:08.028Z,4.47
2023-04-30T06:15:36.210Z,4.88
2023-04-30T06:18:05.333Z,4.50
2023-04-30T06:20:35.054Z,4.43
2023-04-30T06:23:04.090Z,4.55
2023-04-30T06:25:32.317Z,4.40
2023-04-30T06:28:00.391Z,3.80
2023-04-30T06:30:34.483Z,3.80
2023-04-30T06:33:02.640Z,3.72
2023-04-30T06:35:30.834Z,3.35
2023-04-30T06:38:00.317Z,3.38
2023-04-30T06:40:28.433Z,2.97
2023-04-30T06:42:56.516Z,2.90
2023-04-30T06:45:24.701Z,2.70
2023-04-30T06:47:53.569Z,2.80
2023-04-30T06:50:22.645Z,2.88
2023-04-30T06:52:50.814Z,2.72
2023-04-30T06:55:20.617Z,2.45
2023-04-30T06:57:48.775Z,2.50
2023-04-30T07:00:16.967Z,1.80
2023-04-30T07:02:48.015Z,1.60
2023-04-30T07:05:16.272Z,1.70
2023-04-30T07:07:44.368Z,1.77
2023-04-30T07:10:12.901Z,1.95
2023-04-30T07:12:42.306Z,2.30
2023-04-30T07:15:10.982Z,2.03
2023-04-30T07:17:39.960Z,2.00
2023-04-30T07:20:09.326Z,2.40
2023-04-30T07:22:37.411Z,2.10
2023-04-30T07:25:07.011Z,2.80
2023-04-30T07:27:35.114Z,2.50
2023-04-30T07:30:04.834Z,2.50
2023-04-30T07:32:32.984Z,2.90
2023-04-30T07:35:01.123Z,2.35
2023-04-30T07:37:29.210Z,2.33
2023-04-30T07:39:57.581Z,2.08
2023-04-30T07:42:25.831Z,2.10
2023-04-30T07:44:54.194Z,2.00
2023-04-30T07:47:23.638Z,1.63
2023-04-30T07:49:51.782Z,1.80
2023-04-30T07:52:19.881Z,2.00
2023-04-30T07:54:47.964Z,1.92
2023-04-30T07:57:16.031Z,2.10
2023-04-30T07:59:44.336Z,2.50
2023-04-30T08:02:12.442Z,2.25
2023-04-30T08:04:42.127Z,2.40
2023-04-30T08:07:12.603Z,2.50
2023-04-30T08:09:41.297Z,2.20
2023-04-30T08:12:10.244Z,2.63
2023-04-30T08:14:38.333Z,2.30
2023-04-30T08:17:08.024Z,2.28
2023-04-30T08:19:36.163Z,2.20
2023-04-30T08:22:05.707Z,2.13
2023-04-30T08:24:33.771Z,2.08
2023-04-30T08:27:04.102Z,2.00
2023-04-30T08:29:33.314Z,2.13
2023-04-30T08:32:05.803Z,2.10
2023-04-30T08:37:02.160Z,1.60
2023-04-30T08:39:31.647Z,1.58
2023-04-30T08:42:04.011Z,1.30
2023-04-30T08:44:33.437Z,1.63
2023-04-30T08:47:02.948Z,1.63
2023-04-30T08:49:34.005Z,1.80
2023-04-30T08:52:02.306Z,1.73
2023-04-30T08:54:32.664Z,1.67
2023-04-30T08:57:00.791Z,1.58
2023-04-30T08:59:29.057Z,1.58
2023-04-30T09:01:57.214Z,1.40
2023-04-30T09:04:25.370Z,1.40
2023-04-30T09:06:59.021Z,1.80
2023-04-30T09:09:31.911Z,1.73
2023-04-30T09:12:17.862Z,1.70
2023-04-30T09:14:59.979Z,1.63
2023-04-30T09:17:28.755Z,1.98
2023-04-30T09:20:07.505Z,1.42
2023-04-30T09:22:37.082Z,1.60
2023-04-30T09:25:07.929Z,1.95
2023-04-30T09:27:36.319Z,1.90
2023-04-30T09:30:04.850Z,1.85
2023-04-30T09:32:33.143Z,1.95
2023-04-30T09:35:01.327Z,1.50
2023-04-30T09:37:37.726Z,1.52
2023-04-30T09:40:08.726Z,1.52
2023-04-30T09:42:37.048Z,1.40
2023-04-30T09:45:06.746Z,1.52
2023-04-30T09:47:36.091Z,1.52
2023-04-30T09:50:04.443Z,1.52
2023-04-30T09:52:32.901Z,1.20
2023-04-30T09:55:01.060Z,1.08
2023-04-30T09:57:36.339Z,1.23
2023-04-30T10:00:05.425Z,1.15
2023-04-30T10:02:35.326Z,1.23
2023-04-30T10:05:04.805Z,1.27
2023-04-30T10:07:37.478Z,1.45
2023-04-30T10:10:10.118Z,1.50
2023-04-30T10:12:46.098Z,1.70
2023-04-30T10:15:17.746Z,1.60
2023-04-30T10:17:51.239Z,1.25
2023-04-30T10:20:22.782Z,1.17
2023-04-30T10:22:52.060Z,1.20
2023-04-30T10:25:20.745Z,1.48
2023-04-30T10:27:50.433Z,1.33
2023-04-30T10:30:19.478Z,1.40
2023-04-30T10:32:54.996Z,1.10
2023-04-30T10:35:27.588Z,1.10
2023-04-30T10:38:01.006Z,1.15
2023-04-30T10:40:29.162Z,1.00
2023-04-30T10:43:00.408Z,1.27
2023-04-30T10:45:37.932Z,1.20
2023-04-30T10:48:07.432Z,1.35
2023-04-30T10:50:45.003Z,1.42
2023-04-30T10:53:16.198Z,1.00
2023-04-30T10:55:48.369Z,1.00
2023-04-30T10:58:28.104Z,1.30
2023-04-30T11:01:05.323Z,1.25
2023-04-30T11:03:35.520Z,1.20
2023-04-30T11:06:10.319Z,1.02
2023-04-30T11:08:40.196Z,1.35
2023-04-30T11:11:10.522Z,1.20
2023-04-30T11:13:46.736Z,1.20
2023-04-30T11:16:16.961Z,1.30
2023-04-30T11:18:46.168Z,1.10
2023-04-30T11:21:14.577Z,1.10
2023-04-30T11:23:44.388Z,1.20
2023-04-30T11:26:12.851Z,1.10
2023-04-30T11:28:53.375Z,1.38
2023-04-30T11:31:22.128Z,1.10
2023-04-30T11:33:50.771Z,1.08
2023-04-30T11:36:20.640Z,1.02
2023-04-30T11:38:49.336Z,1.30
2023-04-30T11:41:17.461Z,1.23
2023-04-30T11:43:46.841Z,1.10
2023-04-30T11:46:17.610Z,1.00
2023-04-30T11:48:47.199Z,1.05
2023-04-30T11:51:18.909Z,1.38
2023-04-30T11:53:48.728Z,1.10
2023-04-30T11:56:20.701Z,1.20
2023-04-30T11:58:51.632Z,1.45
2023-04-30T12:01:21.149Z,1.05
2023-04-30T12:03:53.518Z,1.20
2023-04-30T12:06:26.153Z,1.08
2023-04-30T12:08:55.254Z,1.15
2023-04-30T12:11:25.355Z,1.00
2023-04-30T12:13:56.827Z,1.40
2023-04-30T12:16:26.065Z,1.27
2023-04-30T12:18:54.217Z,1.17
2023-04-30T12:21:23.848Z,1.08
2023-04-30T12:23:52.017Z,1.15
2023-04-30T12:26:20.140Z,1.05
2023-04-30T12:28:49.808Z,0.98
2023-04-30T12:31:20.037Z,1.10
2023-04-30T12:33:56.531Z,1.17
2023-04-30T12:36:31.718Z,1.20
2023-04-30T12:39:08.928Z,1.13
2023-04-30T12:41:42.812Z,1.10
2023-04-30T12:44:21.377Z,1.10
2023-04-30T12:46:53.556Z,1.00
2023-04-30T12:49:26.279Z,1.05
2023-04-30T12:51:59.848Z,1.08
2023-04-30T12:54:29.130Z,1.00
2023-04-30T12:57:02.473Z,1.02
2023-04-30T12:59:31.111Z,1.20
2023-04-30T13:02:09.211Z,0.90
2023-04-30T13:04:37.907Z,1.00
2023-04-30T13:07:06.377Z,1.10
2023-04-30T13:09:35.124Z,0.98
2023-04-30T13:12:03.205Z,1.20
2023-04-30T13:14:31.950Z,0.88
2023-04-30T13:17:00.126Z,0.90
2023-04-30T13:19:30.436Z,0.80
2023-04-30T13:21:59.061Z,0.90
2023-04-30T13:24:27.175Z,0.93
2023-04-30T13:26:55.317Z,1.00
2023-04-30T13:29:23.408Z,0.80
2023-04-30T13:31:51.806Z,0.82
2023-04-30T13:34:19.860Z,0.95
2023-04-30T13:36:49.378Z,1.08
2023-04-30T13:39:17.409Z,0.90
2023-04-30T13:41:45.863Z,0.80
2023-04-30T13:44:13.900Z,1.20
2023-04-30T13:46:42.354Z,0.90
2023-04-30T13:49:10.487Z,0.88
2023-04-30T13:51:38.554Z,1.00
2023-04-30T13:54:08.021Z,0.80
2023-04-30T13:56:36.095Z,0.98
2023-04-30T13:59:04.234Z,0.88
2023-04-30T14:01:33.008Z,0.90
2023-04-30T14:04:02.203Z,0.90
2023-04-30T14:06:30.619Z,1.08
2023-04-30T14:08:58.744Z,0.90
2023-04-30T14:11:28.718Z,0.65
2023-04-30T14:13:56.833Z,1.00
2023-04-30T14:16:25.210Z,0.90
2023-04-30T14:18:53.420Z,0.88
2023-04-30T14:21:21.499Z,0.75
2023-04-30T14:23:49.556Z,0.80
2023-04-30T14:26:17.769Z,0.70
2023-04-30T14:28:47.176Z,0.70
2023-04-30T14:31:15.238Z,1.00
2023-04-30T14:33:43.783Z,1.00
2023-04-30T14:36:11.842Z,0.80
2023-04-30T14:38:40.075Z,0.90
2023-04-30T14:41:08.114Z,0.80
2023-04-30T14:43:36.844Z,0.90
2023-04-30T14:46:06.776Z,0.80
2023-04-30T14:48:34.889Z,0.80
2023-04-30T14:51:02.963Z,0.88
2023-04-30T14:53:31.330Z,0.80
2023-04-30T14:55:59.491Z,0.93
2023-04-30T14:58:27.756Z,0.80
2023-04-30T15:00:55.839Z,0.80
2023-04-30T15:03:25.620Z,0.77
2023-04-30T15:05:53.994Z,0.82
2023-04-30T15:08:22.052Z,0.70
2023-04-30T15:10:50.152Z,0.80
2023-04-30T15:13:18.432Z,0.90
2023-04-30T15:15:47.311Z,0.80
2023-04-30T15:18:15.801Z,0.90
2023-04-30T15:20:45.284Z,0.70
2023-04-30T15:23:13.418Z,1.58
2023-04-30T15:25:44.192Z,1.48
2023-04-30T15:28:12.545Z,1.50
2023-04-30T15:30:40.907Z,1.50
2023-04-30T15:33:09.050Z,1.40
2023-04-30T15:35:37.288Z,1.40
2023-04-30T15:38:06.835Z,1.50
2023-04-30T15:40:37.036Z,1.40
2023-04-30T15:43:06.035Z,1.23
2023-04-30T15:45:34.783Z,1.60
2023-04-30T15:48:02.960Z,1.40
2023-04-30T15:50:31.144Z,1.42
2023-04-30T15:52:59.583Z,1.33
2023-04-30T15:55:29.060Z,1.50
2023-04-30T15:57:57.115Z,1.50
2023-04-30T16:00:27.290Z,1.90
2023-04-30T16:02:55.799Z,1.40
2023-04-30T16:05:23.962Z,1.38
2023-04-30T16:07:53.644Z,1.40
2023-04-30T16:10:21.825Z,1.80
2023-04-30T16:12:51.451Z,1.60
2023-04-30T16:15:19.588Z,1.40
2023-04-30T16:17:47.808Z,1.58
2023-04-30T16:20:16.259Z,1.30
2023-04-30T16:22:44.644Z,1.45
2023-04-30T16:25:12.743Z,1.20
2023-04-30T16:27:40.857Z,1.15
2023-04-30T16:30:11.425Z,1.15
2023-04-30T16:32:39.573Z,1.50
2023-04-30T16:35:09.492Z,1.55
2023-04-30T16:37:37.515Z,1.80
2023-04-30T16:40:07.730Z,1.40
2023-04-30T16:42:36.280Z,1.30
2023-04-30T16:45:04.968Z,1.50
2023-04-30T16:47:35.127Z,1.35
2023-04-30T16:50:03.483Z,1.50
2023-04-30T16:52:32.359Z,1.30
2023-04-30T16:55:00.587Z,1.40
2023-04-30T16:57:28.646Z,1.67
2023-04-30T16:59:56.995Z,1.58
2023-04-30T17:02:25.470Z,1.83
2023-04-30T17:04:55.003Z,1.73
2023-04-30T17:07:23.280Z,1.50
2023-04-30T17:09:51.813Z,1.40
2023-04-30T17:12:21.209Z,1.50
2023-04-30T17:14:49.363Z,1.25
2023-04-30T17:17:17.424Z,1.25
2023-04-30T17:19:45.871Z,1.60
2023-04-30T17:22:20.052Z,1.40
2023-04-30T17:24:48.947Z,1.50
2023-04-30T17:27:17.591Z,1.73
2023-04-30T17:29:45.773Z,1.52
2023-04-30T17:32:17.669Z,1.67
2023-04-30T17:34:46.615Z,1.83
2023-04-30T17:37:18.251Z,2.00
2023-04-30T17:39:47.367Z,1.77
2023-04-30T17:42:15.450Z,2.03
2023-04-30T17:44:44.615Z,1.70
2023-04-30T17:47:16.186Z,1.67
2023-04-30T17:49:44.944Z,1.90
2023-04-30T17:52:13.702Z,1.67
2023-04-30T17:54:43.860Z,1.80
2023-04-30T17:57:12.821Z,1.80
2023-04-30T17:59:41.486Z,1.88
2023-04-30T18:02:10.201Z,2.00
2023-04-30T18:04:38.742Z,2.17
2023-04-30T18:07:08.258Z,2.05
2023-04-30T18:09:36.780Z,2.10
2023-04-30T18:12:06.900Z,2.03
2023-04-30T18:14:35.377Z,1.95
2023-04-30T18:17:03.828Z,2.08
2023-04-30T18:19:32.645Z,1.60
2023-04-30T18:22:01.389Z,2.05
2023-04-30T18:24:29.621Z,1.95
2023-04-30T18:26:57.785Z,2.22
2023-04-30T18:29:27.372Z,1.92
2023-04-30T18:31:56.698Z,2.20
2023-04-30T18:34:25.246Z,2.53
2023-04-30T18:36:53.813Z,2.13
2023-04-30T18:39:22.417Z,2.30
2023-04-30T18:41:51.549Z,2.38
2023-04-30T18:44:20.901Z,2.60
2023-04-30T18:46:53.257Z,2.22
2023-04-30T18:49:21.379Z,2.50
2023-04-30T18:51:49.714Z,2.53
2023-04-30T18:54:19.203Z,2.60
2023-04-30T18:56:53.748Z,2.40
2023-04-30T18:59:23.273Z,2.70
2023-04-30T19:01:53.517Z,2.53
2023-04-30T19:04:22.036Z,2.30
2023-04-30T19:06:56.398Z,2.38
2023-04-30T19:09:25.316Z,2.33
2023-04-30T19:11:54.308Z,2.33
2023-04-30T19:14:22.419Z,2.03
2023-04-30T19:16:51.070Z,2.63
2023-04-30T19:19:21.114Z,2.22
2023-04-30T19:21:49.210Z,3.10
2023-04-30T19:24:18.500Z,2.65
2023-04-30T19:26:48.320Z,3.00
2023-04-30T19:29:17.533Z,2.65
2023-04-30T19:31:46.381Z,3.10
2023-04-30T19:34:16.541Z,3.20
2023-04-30T19:36:49.321Z,3.10
2023-04-30T19:39:18.247Z,2.78
2023-04-30T19:41:47.468Z,2.72
2023-04-30T19:44:17.488Z,2.88
2023-04-30T19:46:46.515Z,2.88
2023-04-30T19:49:14.644Z,2.88
2023-04-30T19:51:43.282Z,2.47
2023-04-30T19:54:14.869Z,3.08
2023-04-30T19:56:43.898Z,2.97
2023-04-30T19:59:14.569Z,3.28
2023-04-30T20:01:43.695Z,3.33
2023-04-30T20:04:13.000Z,2.97
2023-04-30T20:06:42.447Z,3.90
2023-04-30T20:09:12.539Z,3.53
2023-04-30T20:11:49.942Z,3.42
2023-04-30T20:14:18.639Z,2.75
2023-04-30T20:16:52.549Z,3.10
2023-04-30T20:19:22.275Z,3.95
2023-04-30T20:21:51.050Z,3.70
2023-04-30T20:24:22.348Z,3.90
2023-04-30T20:26:50.968Z,3.78
2023-04-30T20:29:21.248Z,3.90
2023-04-30T20:31:50.989Z,4.82
2023-04-30T20:34:19.671Z,3.40
2023-04-30T20:36:47.987Z,3.47
2023-04-30T20:39:16.536Z,3.45
2023-04-30T20:41:48.096Z,2.63
2023-04-30T20:44:17.693Z,3.50
2023-04-30T20:46:46.383Z,3.50
2023-04-30T20:49:14.762Z,3.40
2023-04-30T20:51:43.322Z,3.40
2023-04-30T20:54:12.384Z,3.22
2023-04-30T20:56:40.890Z,2.97
2023-04-30T20:59:10.419Z,3.40
2023-04-30T21:01:38.868Z,3.72
2023-04-30T21:04:07.466Z,3.72
2023-04-30T21:06:35.686Z,3.90
2023-04-30T21:09:04.230Z,4.43
2023-04-30T21:11:33.846Z,4.07
2023-04-30T21:14:02.249Z,3.95
2023-04-30T21:16:32.710Z,3.55
2023-04-30T21:19:00.874Z,3.75
2023-04-30T21:21:29.073Z,3.72
2023-04-30T21:23:57.176Z,3.83
2023-04-30T21:26:25.200Z,3.25
2023-04-30T21:28:53.268Z,3.50
2023-04-30T21:31:21.510Z,3.85
2023-04-30T21:33:51.099Z,3.85
2023-04-30T21:36:19.179Z,3.70
2023-04-30T21:38:47.261Z,4.57
2023-04-30T21:41:15.476Z,4.22
2023-04-30T21:43:46.528Z,4.22
2023-04-30T21:46:14.698Z,4.47
2023-04-30T21:48:42.789Z,4.22
2023-04-30T21:51:17.219Z,4.07
2023-04-30T21:53:45.761Z,3.50
2023-04-30T21:56:14.946Z,3.80
2023-04-30T21:58:43.100Z,3.72
2023-04-30T22:01:11.182Z,3.78
2023-04-30T22:03:39.652Z,3.53
2023-04-30T22:06:08.318Z,3.55
2023-04-30T22:08:37.821Z,3.67
2023-04-30T22:11:05.949Z,3.80
2023-04-30T22:13:34.061Z,3.60
2023-04-30T22:16:03.259Z,3.72
2023-04-30T22:18:31.456Z,4.32
2023-04-30T22:21:00.634Z,3.35
2023-04-30T22:23:28.940Z,3.38
2023-04-30T22:25:58.518Z,3.65
2023-04-30T22:28:26.691Z,3.55
2023-04-30T22:31:00.012Z,3.20
2023-04-30T22:33:28.126Z,3.65
2023-04-30T22:35:56.594Z,3.90
2023-04-30T22:38:24.671Z,3.08
2023-04-30T22:40:52.940Z,3.58
2023-04-30T22:43:22.452Z,3.45
2023-04-30T22:45:51.251Z,3.40
2023-04-30T22:48:19.532Z,3.10
2023-04-30T22:50:47.679Z,3.42
2023-04-30T22:53:15.803Z,3.85
2023-04-30T22:55:44.083Z,3.30
2023-04-30T22:58:12.253Z,3.80
2023-04-30T23:00:41.831Z,3.08
2023-04-30T23:03:09.994Z,3.40
2023-04-30T23:05:38.113Z,3.28
2023-04-30T23:08:06.350Z,3.58
2023-04-30T23:10:34.389Z,3.53
2023-04-30T23:13:02.497Z,3.15
2023-04-30T23:15:30.564Z,3.38
2023-04-30T23:18:00.567Z,2.97
2023-04-30T23:20:28.840Z,2.90
2023-04-30T23:22:57.127Z,2.60
2023-04-30T23:25:25.427Z,3.28
2023-04-30T23:27:54.125Z,3.13
2023-04-30T23:30:22.432Z,3.42
2023-04-30T23:32:50.592Z,2.53
2023-04-30T23:35:20.069Z,2.70
2023-04-30T23:37:48.119Z,2.83
2023-04-30T23:40:16.512Z,2.72
2023-04-30T23:42:44.602Z,2.80
2023-04-30T23:45:12.920Z,2.50
2023-04-30T23:47:41.004Z,2.53
2023-04-30T23:50:10.319Z,2.60
2023-04-30T23:52:39.843Z,2.80
2023-04-30T23:55:09.311Z,3.65
2023-04-30T23:57:37.600Z,2.75
